createdAt,value
2019-05-11T00:00:12.390Z,3.40
2019-05-11T00:02:43.662Z,3.70
2019-05-11T00:05:14.885Z,3.60
2019-05-11T00:07:46.023Z,3.65
2019-05-11T00:10:17.316Z,3.30
2019-05-11T00:12:48.531Z,3.70
2019-05-11T00:15:19.715Z,3.58
2019-05-11T00:17:50.804Z,3.70
2019-05-11T00:20:22.102Z,3.70
2019-05-11T00:22:53.513Z,3.65
2019-05-11T00:25:24.678Z,3.65
2019-05-11T00:27:55.850Z,4.05
2019-05-11T00:30:27.030Z,3.92
2019-05-11T00:32:58.187Z,4.00
2019-05-11T00:35:29.340Z,4.70
2019-05-11T00:38:00.539Z,5.20
2019-05-11T00:40:31.709Z,4.65
2019-05-11T00:43:03.775Z,5.60
2019-05-11T00:45:38.226Z,6.08
2019-05-11T00:48:09.471Z,5.73
2019-05-11T00:50:42.163Z,6.07
2019-05-11T00:53:13.350Z,6.22
2019-05-11T00:55:44.476Z,6.12
2019-05-11T00:58:15.654Z,6.25
2019-05-11T01:00:46.741Z,6.17
2019-05-11T01:03:17.876Z,6.33
2019-05-11T01:05:49.115Z,6.10
2019-05-11T01:08:20.710Z,6.03
2019-05-11T01:10:51.869Z,5.83
2019-05-11T01:13:23.091Z,5.78
2019-05-11T01:15:54.235Z,6.20
2019-05-11T01:18:25.355Z,6.25
2019-05-11T01:20:56.525Z,5.97
2019-05-11T01:23:27.639Z,6.85
2019-05-11T01:25:58.841Z,6.87
2019-05-11T01:28:30.130Z,6.45
2019-05-11T01:31:01.223Z,7.55
2019-05-11T01:33:32.310Z,6.70
2019-05-11T01:36:05.489Z,7.28
2019-05-11T01:38:36.216Z,7.47
2019-05-11T01:41:07.409Z,7.05
2019-05-11T01:43:45.644Z,8.48
2019-05-11T01:46:16.784Z,8.48
2019-05-11T01:48:47.944Z,8.43
2019-05-11T01:51:19.986Z,8.95
2019-05-11T01:53:51.188Z,8.38
2019-05-11T01:56:22.348Z,8.77
2019-05-11T01:58:53.578Z,8.80
2019-05-11T02:01:25.795Z,9.37
2019-05-11T02:03:56.891Z,9.00
2019-05-11T02:06:28.049Z,9.38
2019-05-11T02:08:59.310Z,9.48
2019-05-11T02:11:30.434Z,8.63
2019-05-11T02:14:01.699Z,8.83
2019-05-11T02:16:32.881Z,8.93
2019-05-11T02:19:03.980Z,9.20
2019-05-11T02:21:35.147Z,8.80
2019-05-11T02:24:06.208Z,8.75
2019-05-11T02:26:37.390Z,8.60
2019-05-11T02:29:08.703Z,8.78
2019-05-11T02:31:40.882Z,8.28
2019-05-11T02:34:15.797Z,8.27
2019-05-11T02:36:46.912Z,7.25
2019-05-11T02:39:18.077Z,8.95
2019-05-11T02:41:49.219Z,9.75
2019-05-11T02:44:20.629Z,12.05
2019-05-11T04:12:35.627Z,8.63
2019-05-11T04:17:39.309Z,8.13
2019-05-11T04:20:10.604Z,9.48
2019-05-11T04:22:41.694Z,10.20
2019-05-11T04:25:13.034Z,9.73
2019-05-11T04:27:44.161Z,9.73
2019-05-11T04:30:15.611Z,9.95
2019-05-11T04:32:46.741Z,8.48
2019-05-11T04:35:19.466Z,8.20
2019-05-11T04:37:50.606Z,8.95
2019-05-11T04:40:22.209Z,8.43
2019-05-11T04:42:55.956Z,8.20
2019-05-11T04:45:26.173Z,8.08
2019-05-11T04:47:57.290Z,8.03
2019-05-11T04:50:28.516Z,8.08
2019-05-11T04:53:00.926Z,8.20
2019-05-11T04:55:32.059Z,8.30
2019-05-11T04:58:03.221Z,7.42
2019-05-11T05:00:36.154Z,9.43
2019-05-11T05:03:08.301Z,9.70
2019-05-11T05:05:39.447Z,10.43
2019-05-11T05:08:10.717Z,9.70
2019-05-11T05:10:41.916Z,10.38
2019-05-11T05:13:14.073Z,10.10
2019-05-11T05:15:47.469Z,9.88
2019-05-11T05:18:18.635Z,9.18
2019-05-11T05:20:49.737Z,9.80
2019-05-11T05:23:20.913Z,10.23
2019-05-11T05:25:52.052Z,8.95
2019-05-11T05:28:23.325Z,8.23
2019-05-11T05:30:55.986Z,8.90
2019-05-11T05:33:27.149Z,8.50
2019-05-11T05:35:58.397Z,8.08
2019-05-11T05:38:29.458Z,8.45
2019-05-11T05:41:00.652Z,7.83
2019-05-11T05:43:31.758Z,7.92
2019-05-11T05:46:02.970Z,8.15
2019-05-11T05:48:34.154Z,8.10
2019-05-11T05:51:05.372Z,8.48
2019-05-11T05:53:36.657Z,7.90
2019-05-11T05:56:07.841Z,8.83
2019-05-11T05:58:39.021Z,8.48
2019-05-11T06:01:10.446Z,8.63
2019-05-11T06:03:43.158Z,7.72
2019-05-11T06:06:16.796Z,6.60
2019-05-11T06:08:47.950Z,6.28
2019-05-11T06:11:24.261Z,7.53
2019-05-11T06:13:51.892Z,9.28
2019-05-11T06:16:26.026Z,9.33
2019-05-11T06:18:57.164Z,8.63
2019-05-11T06:21:28.287Z,8.68
2019-05-11T06:24:06.201Z,7.40
2019-05-11T06:26:34.885Z,7.40
2019-05-11T06:29:10.482Z,6.50
2019-05-11T06:31:41.505Z,7.00
2019-05-11T06:34:14.213Z,7.00
2019-05-11T06:36:45.363Z,7.30
2019-05-11T06:39:16.488Z,6.30
2019-05-11T06:41:47.725Z,6.12
2019-05-11T06:44:18.903Z,5.70
2019-05-11T06:46:51.522Z,5.70
2019-05-11T06:49:22.695Z,4.45
2019-05-11T06:51:53.848Z,5.65
2019-05-11T06:54:25.087Z,5.28
2019-05-11T06:56:56.282Z,4.37
2019-05-11T06:59:27.434Z,5.20
2019-05-11T07:01:59.808Z,4.37
2019-05-11T07:04:30.934Z,3.40
2019-05-11T07:07:02.218Z,3.08
2019-05-11T07:09:33.380Z,2.50
2019-05-11T07:12:04.537Z,2.00
2019-05-11T07:14:35.676Z,2.20
2019-05-11T07:17:06.908Z,2.90
2019-05-11T07:19:38.046Z,2.30
2019-05-11T07:22:09.389Z,1.95
2019-05-11T07:24:40.586Z,2.52
2019-05-11T07:27:11.737Z,2.30
2019-05-11T07:29:42.823Z,2.50
2019-05-11T07:32:22.096Z,2.70
2019-05-11T07:34:48.643Z,2.50
2019-05-11T07:37:19.479Z,2.20
2019-05-11T07:39:50.603Z,2.50
2019-05-11T07:42:22.338Z,2.60
2019-05-11T07:44:53.493Z,2.20
2019-05-11T07:47:27.831Z,1.85
2019-05-11T07:49:58.764Z,1.65
2019-05-11T07:52:29.922Z,2.58
2019-05-11T07:55:01.019Z,2.30
2019-05-11T07:57:33.162Z,2.50
2019-05-11T08:00:07.867Z,1.90
2019-05-11T08:02:38.899Z,2.00
2019-05-11T08:05:12.361Z,2.00
2019-05-11T08:07:44.078Z,1.90
2019-05-11T08:10:15.199Z,1.90
2019-05-11T08:12:48.100Z,1.60
2019-05-11T08:15:19.107Z,1.15
2019-05-11T08:17:50.314Z,1.10
2019-05-11T08:20:21.590Z,1.10
2019-05-11T08:22:52.882Z,1.10
2019-05-11T08:25:24.154Z,1.30
2019-05-11T08:27:58.854Z,1.35
2019-05-11T08:30:29.797Z,0.98
2019-05-11T08:35:33.012Z,1.12
2019-05-11T08:38:04.194Z,1.10
2019-05-11T08:40:35.252Z,1.35
2019-05-11T08:43:08.615Z,1.30
2019-05-11T08:45:39.488Z,1.50
2019-05-11T08:48:11.746Z,1.27
2019-05-11T08:50:43.029Z,1.32
2019-05-11T08:56:03.731Z,1.57
2019-05-11T08:58:58.790Z,1.20
2019-05-11T09:01:33.228Z,1.20
2019-05-11T09:04:15.374Z,1.30
2019-05-11T09:06:49.518Z,1.10
2019-05-11T09:09:20.640Z,1.37
2019-05-11T09:11:51.831Z,1.82
2019-05-11T09:14:22.968Z,1.00
2019-05-11T09:16:54.169Z,1.40
2019-05-11T09:19:31.825Z,1.30
2019-05-11T09:22:08.263Z,1.40
2019-05-11T09:24:39.635Z,2.23
2019-05-11T09:27:10.782Z,1.55
2019-05-11T09:29:41.983Z,1.60
2019-05-11T09:32:17.934Z,1.60
2019-05-11T09:34:51.295Z,1.52
2019-05-11T09:37:22.525Z,2.10
2019-05-11T09:39:58.199Z,1.98
2019-05-11T09:42:29.300Z,1.80
2019-05-11T09:45:03.862Z,2.20
2019-05-11T09:47:39.353Z,1.95
2019-05-11T09:50:11.067Z,2.22
2019-05-11T09:52:42.166Z,1.80
2019-05-11T09:55:13.269Z,2.33
2019-05-11T09:57:48.682Z,2.42
2019-05-11T10:02:50.525Z,2.83
2019-05-11T10:05:21.818Z,2.40
2019-05-11T10:07:52.985Z,2.22
2019-05-11T10:10:26.196Z,2.20
2019-05-11T10:12:59.009Z,2.27
2019-05-11T10:18:02.635Z,2.35
2019-05-11T10:20:33.743Z,3.00
2019-05-11T10:23:08.363Z,3.10
2019-05-11T10:25:48.074Z,3.00
2019-05-11T10:28:24.278Z,3.10
2019-05-11T10:31:02.735Z,3.25
2019-05-11T10:33:34.047Z,3.50
2019-05-11T10:36:08.221Z,3.33
2019-05-11T10:39:07.865Z,4.17
2019-05-11T10:41:43.920Z,4.80
2019-05-11T10:44:23.425Z,5.92
2019-05-11T10:46:54.807Z,4.65
2019-05-11T10:49:40.424Z,4.62
2019-05-11T10:52:28.620Z,4.83
2019-05-11T10:58:03.619Z,4.97
2019-05-11T11:00:49.644Z,5.90
2019-05-11T11:06:48.341Z,5.78
2019-05-11T11:09:19.610Z,5.55
2019-05-11T11:12:02.064Z,5.62
2019-05-11T11:14:44.867Z,5.50
2019-05-11T11:17:38.266Z,5.58
2019-05-11T11:23:35.463Z,6.10
2019-05-11T11:26:32.419Z,5.70
2019-05-11T11:29:40.042Z,6.42
2019-05-11T11:35:38.707Z,6.80
2019-05-11T11:38:13.610Z,6.40
2019-05-11T11:41:43.234Z,6.20
2019-05-11T11:48:18.949Z,5.70
2019-05-11T11:50:48.715Z,5.78
2019-05-11T11:53:30.972Z,5.97
2019-05-11T11:56:02.301Z,5.12
2019-05-11T12:01:10.000Z,5.47
2019-05-11T12:03:41.233Z,5.78
2019-05-11T12:06:12.408Z,6.20
2019-05-11T12:08:45.252Z,6.15
2019-05-11T12:11:18.994Z,5.83
2019-05-11T12:13:50.531Z,6.87
2019-05-11T12:16:21.626Z,7.17
2019-05-11T12:18:52.828Z,7.35
2019-05-11T12:21:24.057Z,6.90
2019-05-11T12:23:55.273Z,7.47
2019-05-11T12:26:28.293Z,7.83
2019-05-11T12:28:59.502Z,7.85
2019-05-11T12:31:32.619Z,6.85
2019-05-11T12:36:33.971Z,6.92
2019-05-11T12:39:09.784Z,7.70
2019-05-11T12:41:41.107Z,7.42
2019-05-11T12:44:13.998Z,7.72
2019-05-11T12:46:45.059Z,7.28
2019-05-11T12:49:18.468Z,7.50
2019-05-11T12:54:20.256Z,6.08
2019-05-11T12:56:51.400Z,6.55
2019-05-11T12:59:22.575Z,7.58
2019-05-11T13:01:53.790Z,7.35
2019-05-11T13:04:24.990Z,6.85
2019-05-11T13:06:59.201Z,7.60
2019-05-11T13:09:32.957Z,7.33
2019-05-11T13:12:04.394Z,8.40
2019-05-11T13:14:38.160Z,7.62
2019-05-11T13:17:10.457Z,8.23
2019-05-11T13:19:41.680Z,8.63
2019-05-11T13:22:13.797Z,9.68
2019-05-11T13:24:48.247Z,10.85
2019-05-11T13:27:19.765Z,10.15
2019-05-11T13:29:50.933Z,11.12
2019-05-11T13:32:22.141Z,12.07
2019-05-11T13:34:53.376Z,13.22
2019-05-11T13:37:24.604Z,14.78
2019-05-11T13:39:57.829Z,14.75
2019-05-11T13:42:28.782Z,15.23
2019-05-11T13:45:00.178Z,14.65
2019-05-11T13:47:31.364Z,12.95
2019-05-11T13:50:03.328Z,14.53
2019-05-11T13:52:34.491Z,12.63
2019-05-11T13:55:08.553Z,13.08
2019-05-11T13:57:40.684Z,12.68
2019-05-11T14:00:11.956Z,12.20
2019-05-11T14:02:43.082Z,11.90
2019-05-11T14:05:14.381Z,12.45
2019-05-11T14:07:48.295Z,13.32
2019-05-11T14:12:55.420Z,11.35
2019-05-11T14:15:28.020Z,13.83
2019-05-11T14:18:07.852Z,11.55
2019-05-11T14:20:43.931Z,10.53
2019-05-11T14:23:23.802Z,10.55
2019-05-11T14:26:08.728Z,12.88
2019-05-11T14:29:07.907Z,11.22
2019-05-11T14:31:48.849Z,12.80
2019-05-11T14:34:24.914Z,10.35
2019-05-11T14:36:58.264Z,10.05
2019-05-11T14:39:29.709Z,9.53
2019-05-11T14:42:02.420Z,9.45
2019-05-11T14:44:33.551Z,9.98
2019-05-11T14:47:04.960Z,9.60
2019-05-11T14:49:39.333Z,9.00
2019-05-11T14:52:12.300Z,8.93
2019-05-11T14:54:43.940Z,10.18
2019-05-11T14:57:34.585Z,10.68
2019-05-11T15:00:09.888Z,10.18
2019-05-11T15:02:49.143Z,9.53
2019-05-11T15:05:20.974Z,9.13
2019-05-11T15:07:52.950Z,9.65
2019-05-11T15:10:28.254Z,9.40
2019-05-11T15:12:59.707Z,8.53
2019-05-11T15:15:35.568Z,8.45
2019-05-11T15:18:08.446Z,7.72
2019-05-11T15:23:18.051Z,7.42
2019-05-11T15:25:49.345Z,7.15
2019-05-11T15:28:20.456Z,7.05
2019-05-11T15:30:59.599Z,6.78
2019-05-11T15:33:48.636Z,6.33
2019-05-11T15:36:19.477Z,6.78
2019-05-11T15:38:52.699Z,6.72
2019-05-11T15:43:57.775Z,6.58
2019-05-11T15:46:28.570Z,6.33
2019-05-11T15:49:03.273Z,6.33
2019-05-11T15:51:35.459Z,6.08
2019-05-11T15:54:07.911Z,5.45
2019-05-11T15:56:39.731Z,5.40
2019-05-11T15:59:12.570Z,6.28
2019-05-11T16:04:14.416Z,6.40
2019-05-11T16:06:45.677Z,14.43
2019-05-11T16:09:18.382Z,11.12
2019-05-11T16:11:49.836Z,10.40
2019-05-11T16:22:01.018Z,9.33
2019-05-11T16:24:32.204Z,7.33
2019-05-11T16:27:03.371Z,7.62
2019-05-11T16:34:35.327Z,7.45
2019-05-11T16:37:09.917Z,7.95
2019-05-11T16:42:09.952Z,7.95
2019-05-11T16:47:18.029Z,7.65
2019-05-11T16:49:48.794Z,8.25
2019-05-11T16:52:20.063Z,7.80
2019-05-11T16:54:52.176Z,9.30
2019-05-11T16:57:29.695Z,9.53
2019-05-11T17:00:00.584Z,8.73
2019-05-11T17:22:40.483Z,8.50
2019-05-11T17:25:19.779Z,8.68
2019-05-11T18:30:47.991Z,8.38
2019-05-11T18:33:21.102Z,9.85
2019-05-11T18:35:53.473Z,8.45
2019-05-11T18:38:39.750Z,7.83
2019-05-11T18:41:12.404Z,8.18
2019-05-11T19:11:21.293Z,9.70
2019-05-11T19:13:52.426Z,8.93
